createdAt,value
2022-11-25T00:01:23.739Z,6.40
2022-11-25T00:03:52.730Z,9.43
2022-11-25T00:06:30.616Z,7.77
2022-11-25T00:09:01.371Z,8.07
2022-11-25T00:11:29.149Z,8.10
2022-11-25T00:13:57.640Z,8.63
2022-11-25T00:16:26.652Z,6.73
2022-11-25T00:18:55.653Z,10.13
2022-11-25T00:21:26.119Z,7.93
2022-11-25T00:23:56.059Z,5.30
2022-11-25T00:26:24.405Z,6.27
2022-11-25T00:28:52.082Z,4.97
2022-11-25T00:31:22.963Z,4.80
2022-11-25T00:33:50.587Z,6.23
2022-11-25T00:36:21.266Z,4.27
2022-11-25T00:38:53.653Z,4.63
2022-11-25T00:41:38.867Z,4.60
2022-11-25T00:44:24.509Z,4.77
2022-11-25T00:46:51.289Z,4.77
2022-11-25T00:49:18.096Z,5.03
2022-11-25T00:51:44.987Z,7.27
2022-11-25T00:54:12.260Z,3.73
2022-11-25T00:56:39.249Z,4.50
2022-11-25T00:59:06.170Z,4.77
2022-11-25T01:01:33.556Z,3.10
2022-11-25T01:04:00.440Z,4.00
2022-11-25T01:06:27.281Z,4.67
2022-11-25T01:08:54.481Z,5.57
2022-11-25T01:11:23.152Z,4.43
2022-11-25T01:13:50.713Z,3.93
2022-11-25T01:16:19.996Z,3.73
2022-11-25T01:18:47.813Z,6.27
2022-11-25T01:21:22.363Z,4.93
2022-11-25T01:23:50.088Z,4.93
2022-11-25T01:26:23.799Z,4.27
2022-11-25T01:28:56.758Z,4.23
2022-11-25T01:31:26.165Z,5.10
2022-11-25T01:34:03.172Z,4.40
2022-11-25T01:36:30.823Z,3.57
2022-11-25T01:39:00.169Z,5.03
2022-11-25T01:41:30.586Z,4.63
2022-11-25T01:44:14.568Z,3.50
2022-11-25T01:46:56.144Z,4.37
2022-11-25T01:49:44.873Z,4.47
2022-11-25T01:52:29.805Z,4.93
2022-11-25T01:55:14.743Z,3.73
2022-11-25T01:57:48.781Z,3.63
2022-11-25T02:00:17.044Z,3.40
2022-11-25T02:02:44.550Z,3.83
2022-11-25T02:05:23.182Z,4.53
2022-11-25T02:07:52.937Z,4.60
2022-11-25T02:10:27.679Z,4.37
2022-11-25T02:12:54.998Z,3.70
2022-11-25T02:15:22.368Z,3.23
2022-11-25T02:17:49.726Z,3.13
2022-11-25T02:20:20.505Z,4.20
2022-11-25T02:23:25.602Z,3.10
2022-11-25T02:25:54.587Z,3.80
2022-11-25T02:28:31.369Z,3.93
2022-11-25T02:30:59.004Z,3.80
2022-11-25T02:33:28.630Z,4.17
2022-11-25T02:36:15.100Z,4.10
2022-11-25T02:38:45.438Z,4.07
2022-11-25T02:41:29.028Z,4.73
2022-11-25T02:43:55.893Z,3.87
2022-11-25T02:46:25.732Z,5.70
2022-11-25T02:49:10.994Z,3.67
2022-11-25T02:51:40.996Z,4.23
2022-11-25T02:54:08.191Z,3.37
2022-11-25T02:56:36.728Z,5.00
2022-11-25T02:59:04.573Z,3.00
2022-11-25T03:01:32.115Z,3.90
2022-11-25T03:03:59.750Z,4.17
2022-11-25T03:06:26.740Z,3.80
2022-11-25T03:08:53.620Z,3.20
2022-11-25T03:11:20.575Z,4.20
2022-11-25T03:13:47.393Z,3.80
2022-11-25T03:16:14.241Z,3.83
2022-11-25T03:18:41.140Z,2.83
2022-11-25T03:21:07.939Z,4.03
2022-11-25T03:23:34.757Z,3.20
2022-11-25T03:26:07.261Z,3.20
2022-11-25T03:28:34.152Z,4.87
2022-11-25T03:31:00.961Z,4.33
2022-11-25T03:33:27.824Z,4.47
2022-11-25T03:35:54.604Z,4.47
2022-11-25T03:38:21.418Z,3.60
2022-11-25T03:40:48.322Z,3.50
2022-11-25T03:43:15.187Z,3.43
2022-11-25T03:45:42.020Z,4.10
2022-11-25T03:48:08.952Z,4.13
2022-11-25T03:50:35.723Z,4.47
2022-11-25T03:53:02.494Z,4.30
2022-11-25T03:55:29.288Z,4.00
2022-11-25T03:57:56.121Z,3.90
2022-11-25T04:00:22.953Z,4.20
2022-11-25T04:02:49.803Z,4.83
2022-11-25T04:05:16.759Z,4.63
2022-11-25T04:07:43.721Z,4.97
2022-11-25T04:10:11.494Z,3.63
2022-11-25T04:12:47.250Z,3.97
2022-11-25T04:15:18.697Z,4.10
2022-11-25T04:17:45.755Z,3.87
2022-11-25T04:20:14.751Z,4.33
2022-11-25T04:22:42.188Z,4.63
2022-11-25T04:25:10.502Z,3.83
2022-11-25T04:27:37.352Z,4.53
2022-11-25T04:30:05.989Z,3.63
2022-11-25T04:32:32.797Z,3.70
2022-11-25T04:34:59.621Z,3.83
2022-11-25T04:37:26.460Z,4.93
2022-11-25T04:39:53.303Z,4.93
2022-11-25T04:42:31.890Z,2.97
2022-11-25T04:45:26.418Z,7.77
2022-11-25T04:47:53.327Z,3.37
2022-11-25T04:50:23.303Z,2.77
2022-11-25T04:52:50.596Z,3.57
2022-11-25T04:55:17.494Z,3.53
2022-11-25T04:57:44.286Z,3.33
2022-11-25T05:00:12.064Z,3.20
2022-11-25T05:02:39.141Z,3.37
2022-11-25T05:05:06.826Z,5.33
2022-11-25T05:07:33.838Z,2.97
2022-11-25T05:10:00.686Z,3.83
2022-11-25T05:12:29.503Z,3.50
2022-11-25T05:14:57.002Z,3.57
2022-11-25T05:17:28.026Z,4.53
2022-11-25T05:19:54.964Z,4.30
2022-11-25T05:22:25.804Z,4.73
2022-11-25T05:24:52.628Z,3.33
2022-11-25T05:27:20.771Z,3.47
2022-11-25T05:29:54.282Z,4.07
2022-11-25T05:32:22.739Z,3.80
2022-11-25T05:34:49.556Z,4.00
2022-11-25T05:37:19.913Z,3.30
2022-11-25T05:39:50.920Z,4.53
2022-11-25T05:42:17.860Z,3.70
2022-11-25T05:44:44.666Z,8.07
2022-11-25T05:47:11.486Z,3.43
2022-11-25T05:49:38.299Z,3.67
2022-11-25T05:52:05.262Z,3.77
2022-11-25T05:54:32.087Z,4.00
2022-11-25T05:56:58.970Z,4.17
2022-11-25T05:59:25.768Z,3.60
2022-11-25T06:01:56.754Z,3.97
2022-11-25T06:04:23.566Z,3.60
2022-11-25T06:06:50.377Z,3.57
2022-11-25T06:09:17.196Z,4.10
2022-11-25T06:11:44.058Z,4.83
2022-11-25T06:14:10.841Z,5.50
2022-11-25T06:16:37.780Z,5.20
2022-11-25T06:19:06.696Z,4.77
2022-11-25T06:21:33.835Z,4.40
2022-11-25T06:24:01.076Z,7.13
2022-11-25T06:26:27.919Z,4.97
2022-11-25T06:28:56.343Z,6.80
2022-11-25T06:31:25.967Z,4.93
2022-11-25T06:33:54.144Z,7.27
2022-11-25T06:36:22.527Z,6.43
2022-11-25T06:38:52.946Z,5.80
2022-11-25T06:41:21.810Z,7.03
2022-11-25T06:43:48.631Z,5.77
2022-11-25T06:46:24.527Z,5.93
2022-11-25T06:48:53.397Z,6.50
2022-11-25T06:51:20.442Z,7.27
2022-11-25T06:53:47.436Z,7.50
2022-11-25T06:56:24.003Z,7.67
2022-11-25T06:58:51.846Z,10.43
2022-11-25T07:01:29.990Z,11.17
2022-11-25T07:04:03.685Z,9.30
2022-11-25T07:06:32.116Z,7.57
2022-11-25T07:08:59.495Z,6.33
2022-11-25T07:11:33.530Z,5.13
2022-11-25T07:14:04.859Z,5.07
2022-11-25T07:16:34.666Z,4.73
2022-11-25T07:19:02.743Z,5.37
2022-11-25T07:21:31.856Z,6.37
2022-11-25T07:24:01.439Z,5.87
2022-11-25T07:26:32.212Z,5.23
2022-11-25T07:29:02.042Z,6.00
2022-11-25T07:31:35.402Z,5.70
2022-11-25T07:34:13.848Z,7.13
2022-11-25T07:36:41.803Z,5.60
2022-11-25T07:39:19.405Z,7.00
2022-11-25T07:41:49.277Z,5.57
2022-11-25T07:44:16.387Z,5.30
2022-11-25T07:46:49.084Z,8.37
2022-11-25T07:49:22.470Z,4.83
2022-11-25T07:51:50.659Z,7.47
2022-11-25T07:54:17.648Z,6.10
2022-11-25T07:56:45.231Z,5.07
2022-11-25T07:59:19.055Z,5.43
2022-11-25T08:01:46.325Z,5.40
2022-11-25T08:04:19.791Z,6.53
2022-11-25T08:06:51.502Z,7.93
2022-11-25T08:09:22.357Z,7.23
2022-11-25T08:11:49.795Z,7.93
2022-11-25T08:14:17.762Z,7.70
2022-11-25T08:16:45.131Z,7.63
2022-11-25T08:19:16.377Z,8.80
2022-11-25T08:21:43.898Z,8.43
2022-11-25T08:24:18.773Z,8.50
2022-11-25T08:26:45.850Z,10.70
2022-11-25T08:29:18.687Z,8.10
2022-11-25T08:31:45.967Z,8.37
2022-11-25T08:34:31.005Z,10.30
2022-11-25T08:36:58.339Z,9.20
2022-11-25T08:42:12.599Z,9.00
2022-11-25T08:44:39.504Z,10.20
2022-11-25T08:47:06.476Z,9.33
2022-11-25T08:49:39.067Z,11.30
2022-11-25T08:52:07.554Z,10.33
2022-11-25T08:54:34.386Z,10.97
2022-11-25T08:57:01.172Z,10.93
2022-11-25T08:59:28.095Z,10.83
2022-11-25T09:01:55.458Z,10.70
2022-11-25T09:04:22.381Z,9.97
2022-11-25T09:06:49.237Z,8.73
2022-11-25T09:09:16.088Z,7.03
2022-11-25T09:11:43.034Z,7.30
2022-11-25T09:14:09.934Z,5.13
2022-11-25T09:16:36.997Z,4.40
2022-11-25T09:19:04.288Z,6.63
2022-11-25T09:21:31.162Z,4.87
2022-11-25T09:23:58.113Z,4.20
2022-11-25T09:26:29.548Z,4.33
2022-11-25T09:28:56.923Z,4.47
2022-11-25T09:31:24.466Z,6.23
2022-11-25T09:33:51.479Z,5.00
2022-11-25T09:36:20.864Z,4.53
2022-11-25T09:38:47.785Z,3.80
2022-11-25T09:41:59.731Z,15.23
2022-11-25T09:45:13.318Z,8.93
2022-11-25T09:48:03.338Z,4.43
2022-11-25T09:51:17.192Z,4.10
2022-11-25T09:53:57.998Z,5.90
2022-11-25T09:56:36.396Z,6.37
2022-11-25T09:59:22.304Z,5.27
2022-11-25T10:02:23.094Z,4.33
2022-11-25T10:04:59.620Z,3.13
2022-11-25T10:07:43.551Z,4.10
2022-11-25T10:10:41.921Z,4.33
2022-11-25T10:13:26.732Z,5.67
2022-11-25T10:15:59.677Z,3.77
2022-11-25T10:18:39.360Z,4.40
2022-11-25T10:21:06.471Z,3.00
2022-11-25T10:23:38.555Z,3.73
2022-11-25T10:26:17.889Z,5.03
2022-11-25T10:28:56.216Z,2.60
2022-11-25T10:31:35.658Z,2.40
2022-11-25T10:34:36.700Z,4.00
2022-11-25T10:37:13.036Z,3.57
2022-11-25T10:39:40.365Z,4.70
2022-11-25T10:42:21.321Z,2.57
2022-11-25T10:44:48.119Z,2.90
2022-11-25T10:47:52.642Z,2.90
2022-11-25T10:50:48.193Z,3.57
2022-11-25T10:53:24.750Z,2.43
2022-11-25T10:56:24.120Z,3.33
2022-11-25T10:58:50.952Z,3.63
2022-11-25T11:01:25.585Z,3.07
2022-11-25T11:04:04.454Z,3.63
2022-11-25T11:06:46.163Z,3.07
2022-11-25T11:09:46.028Z,3.30
2022-11-25T11:12:29.930Z,3.90
2022-11-25T11:15:21.940Z,2.50
2022-11-25T11:17:49.293Z,2.87
2022-11-25T11:20:31.295Z,2.70
2022-11-25T11:23:14.624Z,2.57
2022-11-25T11:25:45.271Z,2.43
2022-11-25T11:28:37.193Z,3.10
2022-11-25T11:31:10.321Z,5.13
2022-11-25T11:33:51.815Z,2.77
2022-11-25T11:37:06.881Z,2.80
2022-11-25T11:40:01.186Z,3.70
2022-11-25T11:42:46.765Z,2.67
2022-11-25T11:45:33.356Z,2.30
2022-11-25T11:48:16.080Z,3.17
2022-11-25T11:50:46.256Z,4.57
2022-11-25T11:53:31.140Z,3.97
2022-11-25T11:56:35.748Z,4.43
2022-11-25T11:59:25.881Z,3.20
2022-11-25T12:02:21.820Z,4.03
2022-11-25T12:05:25.999Z,3.80
2022-11-25T12:08:16.138Z,2.30
2022-11-25T12:10:55.377Z,3.77
2022-11-25T12:14:00.686Z,2.83
2022-11-25T12:16:36.472Z,6.03
2022-11-25T12:19:44.659Z,3.13
2022-11-25T12:22:19.060Z,3.10
2022-11-25T12:24:54.207Z,4.80
2022-11-25T12:27:24.523Z,3.70
2022-11-25T12:31:04.737Z,3.20
2022-11-25T12:34:27.617Z,2.57
2022-11-25T12:37:15.135Z,3.20
2022-11-25T12:39:57.287Z,3.97
2022-11-25T12:42:26.176Z,4.53
2022-11-25T12:44:59.213Z,2.60
2022-11-25T12:47:26.992Z,3.83
2022-11-25T12:49:55.889Z,3.23
2022-11-25T12:52:46.718Z,3.63
2022-11-25T12:55:20.946Z,2.90
2022-11-25T12:58:02.940Z,1.90
2022-11-25T13:01:09.622Z,3.47
2022-11-25T13:04:17.166Z,3.03
2022-11-25T13:07:11.644Z,3.83
2022-11-25T13:10:39.737Z,3.80
2022-11-25T13:13:31.613Z,2.57
2022-11-25T13:16:02.018Z,2.60
2022-11-25T13:18:33.264Z,2.83
2022-11-25T13:21:12.465Z,2.20
2022-11-25T13:23:50.341Z,2.83
2022-11-25T13:26:29.589Z,2.13
2022-11-25T13:28:57.394Z,3.10
2022-11-25T13:31:31.390Z,8.43
2022-11-25T13:33:58.109Z,2.77
2022-11-25T13:36:44.341Z,3.03
2022-11-25T13:39:18.504Z,2.33
2022-11-25T13:42:01.470Z,2.77
2022-11-25T13:44:50.420Z,3.67
2022-11-25T13:47:46.528Z,1.87
2022-11-25T13:50:21.691Z,2.80
2022-11-25T13:53:24.669Z,2.20
2022-11-25T13:55:55.005Z,2.57
2022-11-25T13:58:33.129Z,2.77
2022-11-25T14:01:24.835Z,2.87
2022-11-25T14:04:00.354Z,4.27
2022-11-25T14:07:04.071Z,3.97
2022-11-25T14:10:04.749Z,1.73
2022-11-25T14:13:01.516Z,4.40
2022-11-25T14:15:43.132Z,3.10
2022-11-25T14:18:31.487Z,3.33
2022-11-25T14:21:32.744Z,2.37
2022-11-25T14:24:43.909Z,2.10
2022-11-25T14:27:19.376Z,4.77
2022-11-25T14:30:07.244Z,3.03
2022-11-25T14:32:59.664Z,2.33
2022-11-25T14:35:45.701Z,2.83
2022-11-25T14:38:23.341Z,3.90
2022-11-25T14:41:00.179Z,2.57
2022-11-25T14:43:29.002Z,3.60
2022-11-25T14:46:20.736Z,2.53
2022-11-25T14:49:00.867Z,4.40
2022-11-25T14:51:37.035Z,2.73
2022-11-25T14:54:08.449Z,3.17
2022-11-25T14:56:37.003Z,5.20
2022-11-25T14:59:04.201Z,3.87
2022-11-25T15:01:34.640Z,2.37
2022-11-25T15:04:24.178Z,3.13
2022-11-25T15:06:53.620Z,3.20
2022-11-25T15:09:28.318Z,3.93
2022-11-25T15:12:02.497Z,3.50
2022-11-25T15:14:39.349Z,3.40
2022-11-25T15:17:30.947Z,4.50
2022-11-25T15:20:12.039Z,4.17
2022-11-25T15:22:39.182Z,6.10
2022-11-25T15:25:14.807Z,4.40
2022-11-25T15:27:59.872Z,3.83
2022-11-25T15:30:31.880Z,4.40
2022-11-25T15:32:59.210Z,6.30
2022-11-25T15:35:27.531Z,7.07
2022-11-25T15:37:54.529Z,3.27
2022-11-25T15:40:33.820Z,6.27
2022-11-25T15:43:04.468Z,3.07
2022-11-25T15:45:44.613Z,3.30
2022-11-25T15:48:29.707Z,6.67
2022-11-25T15:51:31.560Z,6.03
2022-11-25T15:54:12.842Z,4.33
2022-11-25T15:56:53.368Z,4.20
2022-11-25T15:59:45.840Z,4.40
2022-11-25T16:02:34.122Z,5.20
2022-11-25T16:05:15.315Z,6.23
2022-11-25T16:07:51.563Z,3.73
2022-11-25T16:10:50.202Z,4.50
2022-11-25T16:13:37.867Z,4.63
2022-11-25T16:16:07.742Z,5.47
2022-11-25T16:18:52.625Z,4.83
2022-11-25T16:21:36.666Z,4.03
2022-11-25T16:24:06.418Z,4.03
2022-11-25T16:26:48.458Z,6.50
2022-11-25T16:29:27.945Z,5.60
2022-11-25T16:31:54.844Z,5.03
2022-11-25T16:34:24.246Z,5.83
2022-11-25T16:36:51.035Z,4.63
2022-11-25T16:39:17.863Z,7.37
2022-11-25T16:41:55.944Z,9.40
2022-11-25T16:44:25.554Z,4.97
2022-11-25T16:46:53.301Z,6.97
2022-11-25T16:49:22.551Z,6.20
2022-11-25T16:51:51.063Z,7.60
2022-11-25T16:54:23.832Z,5.00
2022-11-25T16:56:54.388Z,9.30
2022-11-25T16:59:31.857Z,6.17
2022-11-25T17:02:01.363Z,5.73
2022-11-25T17:04:29.284Z,7.70
2022-11-25T17:07:30.957Z,4.13
2022-11-25T17:09:45.039Z,5.97
2022-11-25T17:12:24.999Z,6.97
2022-11-25T17:14:52.814Z,7.20
2022-11-25T17:17:24.832Z,5.77
2022-11-25T17:19:53.371Z,9.43
2022-11-25T17:22:24.532Z,6.43
2022-11-25T17:24:51.925Z,8.50
2022-11-25T17:27:31.827Z,6.73
2022-11-25T17:30:03.538Z,8.40
2022-11-25T17:32:31.303Z,6.43
2022-11-25T17:34:58.135Z,6.57
2022-11-25T17:37:25.786Z,6.90
2022-11-25T17:39:53.649Z,9.70
2022-11-25T17:42:31.221Z,7.00
2022-11-25T17:44:58.621Z,6.57
2022-11-25T17:47:25.594Z,6.70
2022-11-25T17:49:53.206Z,13.63
2022-11-25T17:52:20.480Z,10.43
2022-11-25T17:54:47.321Z,10.33
2022-11-25T17:57:21.568Z,8.60
2022-11-25T17:59:48.529Z,8.83
2022-11-25T18:02:21.254Z,8.97
2022-11-25T18:04:48.943Z,9.90
2022-11-25T18:07:16.030Z,7.23
2022-11-25T18:09:44.304Z,7.97
2022-11-25T18:12:36.661Z,7.90
2022-11-25T18:15:08.233Z,8.13
2022-11-25T18:17:37.899Z,7.57
2022-11-25T18:20:21.103Z,8.53
2022-11-25T18:22:48.905Z,8.93
2022-11-25T18:25:18.964Z,8.10
2022-11-25T18:27:46.802Z,9.30
2022-11-25T18:30:24.386Z,9.20
2022-11-25T18:32:51.573Z,8.73
2022-11-25T18:35:22.395Z,9.07
2022-11-25T18:37:49.302Z,9.93
2022-11-25T18:40:16.608Z,7.93
2022-11-25T18:42:47.613Z,10.27
2022-11-25T18:45:28.718Z,10.57
2022-11-25T18:47:55.601Z,9.37
2022-11-25T18:50:26.613Z,9.63
2022-11-25T18:52:53.929Z,10.07
2022-11-25T18:55:23.105Z,9.17
2022-11-25T18:57:51.939Z,7.80
2022-11-25T19:00:33.547Z,10.63
2022-11-25T19:03:00.987Z,7.47
2022-11-25T19:05:33.806Z,8.87
2022-11-25T19:08:02.037Z,9.90
2022-11-25T19:10:35.870Z,10.37
2022-11-25T19:13:08.139Z,9.47
2022-11-25T19:15:37.444Z,8.67
2022-11-25T19:18:06.897Z,9.10
2022-11-25T19:20:33.804Z,9.40
2022-11-25T19:23:17.038Z,10.30
2022-11-25T19:25:44.838Z,9.73
2022-11-25T19:28:13.627Z,9.10
2022-11-25T19:30:40.738Z,9.13
2022-11-25T19:33:37.263Z,7.57
2022-11-25T19:36:06.098Z,10.17
2022-11-25T19:38:34.833Z,7.73
2022-11-25T19:41:01.823Z,9.87
2022-11-25T19:43:28.765Z,11.37
2022-11-25T19:45:57.305Z,11.00
2022-11-25T19:48:27.061Z,11.47
2022-11-25T19:50:59.463Z,10.90
2022-11-25T19:53:33.125Z,12.00
2022-11-25T19:56:03.891Z,11.67
2022-11-25T19:58:31.476Z,10.57
2022-11-25T20:01:05.821Z,12.67
2022-11-25T20:03:33.172Z,13.83
2022-11-25T20:05:59.993Z,9.87
2022-11-25T20:08:28.868Z,11.27
2022-11-25T20:10:57.464Z,11.87
2022-11-25T20:13:25.882Z,11.70
2022-11-25T20:15:55.765Z,10.43
2022-11-25T20:18:25.388Z,9.60
2022-11-25T20:21:04.371Z,10.50
2022-11-25T20:23:43.268Z,8.70
2022-11-25T20:26:23.371Z,10.80
2022-11-25T20:28:50.229Z,9.80
2022-11-25T20:31:17.143Z,10.67
2022-11-25T20:33:43.969Z,10.77
2022-11-25T20:36:16.184Z,12.63
2022-11-25T20:38:48.812Z,9.87
2022-11-25T20:41:16.467Z,11.67
2022-11-25T20:43:47.551Z,11.23
2022-11-25T20:46:22.807Z,10.70
2022-11-25T20:48:54.382Z,12.07
2022-11-25T20:51:22.843Z,9.07
2022-11-25T20:53:57.646Z,10.77
2022-11-25T20:56:26.587Z,10.27
2022-11-25T20:58:54.325Z,12.07
2022-11-25T21:01:21.537Z,11.53
2022-11-25T21:03:50.409Z,12.00
2022-11-25T21:06:22.004Z,11.20
2022-11-25T21:08:52.228Z,11.10
2022-11-25T21:11:20.509Z,12.60
2022-11-25T21:13:48.219Z,12.00
2022-11-25T21:16:15.484Z,11.37
2022-11-25T21:18:43.288Z,15.77
2022-11-25T21:21:33.402Z,16.97
2022-11-25T21:24:15.829Z,12.30
2022-11-25T21:26:42.680Z,15.47
2022-11-25T21:29:16.576Z,13.53
2022-11-25T21:31:43.880Z,14.40
2022-11-25T21:34:13.640Z,13.70
2022-11-25T21:36:41.931Z,12.20
2022-11-25T21:39:27.072Z,13.07
2022-11-25T21:41:54.649Z,14.63
2022-11-25T21:44:31.080Z,14.37
2022-11-25T21:46:58.415Z,13.87
2022-11-25T21:49:26.695Z,12.80
2022-11-25T21:51:53.618Z,12.10
2022-11-25T21:54:20.546Z,14.53
2022-11-25T21:56:47.462Z,13.53
2022-11-25T21:59:20.088Z,16.37
2022-11-25T22:01:47.765Z,14.27
2022-11-25T22:04:19.633Z,11.40
2022-11-25T22:06:47.978Z,12.20
2022-11-25T22:09:14.824Z,13.37
2022-11-25T22:11:50.337Z,13.13
2022-11-25T22:14:29.021Z,11.73
2022-11-25T22:16:56.899Z,12.17
2022-11-25T22:19:26.710Z,12.43
2022-11-25T22:21:54.562Z,15.93
2022-11-25T22:24:22.131Z,13.33
2022-11-25T22:26:57.675Z,10.70
2022-11-25T22:29:31.834Z,10.87
2022-11-25T22:31:58.787Z,10.70
2022-11-25T22:34:25.798Z,13.57
2022-11-25T22:36:52.690Z,12.03
2022-11-25T22:39:25.654Z,13.47
2022-11-25T22:42:09.617Z,10.73
2022-11-25T22:44:43.288Z,11.57
2022-11-25T22:47:32.602Z,11.43
2022-11-25T22:50:03.495Z,13.33
2022-11-25T22:52:33.866Z,10.70
2022-11-25T22:55:31.772Z,11.37
2022-11-25T22:58:01.041Z,8.57
2022-11-25T23:00:32.983Z,9.80
2022-11-25T23:03:03.204Z,12.07
2022-11-25T23:05:34.167Z,10.47
2022-11-25T23:08:11.693Z,9.67
2022-11-25T23:10:38.521Z,10.83
2022-11-25T23:13:05.368Z,9.47
2022-11-25T23:15:32.211Z,10.90
2022-11-25T23:18:01.876Z,9.27
2022-11-25T23:20:37.699Z,7.57
2022-11-25T23:23:21.113Z,10.00
2022-11-25T23:25:48.909Z,9.30
2022-11-25T23:28:16.458Z,9.87
2022-11-25T23:30:55.550Z,8.50
2022-11-25T23:33:37.928Z,9.97
2022-11-25T23:36:44.634Z,8.57
2022-11-25T23:39:19.986Z,12.43
2022-11-25T23:41:47.340Z,9.00
2022-11-25T23:44:36.497Z,8.33
2022-11-25T23:47:06.488Z,10.20
2022-11-25T23:49:44.349Z,13.50
2022-11-25T23:52:16.032Z,8.73
2022-11-25T23:54:47.895Z,10.80
2022-11-25T23:57:22.817Z,12.23
2022-11-25T23:59:50.561Z,9.50
